Time;durP1;ratioP1;P1;durP2;ratioP2;P2;SDS_P1;SDS_P2;PMS_P1;PMS_P2;Temp;Humidity;BMP_temperature;BMP_pressure;BME280_temperature;BME280_humidity;BME280_pressure;Samples;Min_cycle;Max_cycle;Signal;HPM_P1;HPM_P2
2023/01/06 00:01:11;;;;;;;3.22;1.30;;;;;;;;;;5035777;28;20206;-88
2023/01/06 00:03:38;;;;;;;1.20;1.13;;;;;;;;;;5054352;28;20217;-89
2023/01/06 00:06:09;;;;;;;1.00;0.90;;;;;;;;;;5039798;28;20249;-90
2023/01/06 00:08:37;;;;;;;0.70;0.70;;;;;;;;;;5037842;28;20281;-90
2023/01/06 00:11:09;;;;;;;1.25;1.10;;;;;;;;;;5037623;28;20739;-90
2023/01/06 00:13:37;;;;;;;0.90;0.90;;;;;;;;;;5040409;28;20229;-89
2023/01/06 00:16:07;;;;;;;0.93;0.88;;;;;;;;;;5037706;28;20205;-89
2023/01/06 00:18:35;;;;;;;0.90;0.90;;;;;;;;;;5037856;28;20238;-89
2023/01/06 00:21:04;;;;;;;1.10;0.80;;;;;;;;;;5037806;28;20630;-89
2023/01/06 00:23:31;;;;;;;1.65;1.02;;;;;;;;;;5037564;28;20755;-90
2023/01/06 00:25:59;;;;;;;0.70;0.70;;;;;;;;;;5037544;28;20638;-89
2023/01/06 00:28:27;;;;;;;1.02;1.00;;;;;;;;;;5037002;28;20643;-89
2023/01/06 00:30:54;;;;;;;0.95;0.95;;;;;;;;;;5037137;28;20218;-89
2023/01/06 00:33:24;;;;;;;0.82;0.82;;;;;;;;;;5037224;28;20250;-89
2023/01/06 00:35:52;;;;;;;1.10;1.00;;;;;;;;;;5035280;28;20272;-88
2023/01/06 00:38:20;;;;;;;1.25;1.05;;;;;;;;;;5036863;28;20233;-89
2023/01/06 00:40:47;;;;;;;0.88;0.80;;;;;;;;;;5037160;28;20202;-89
2023/01/06 00:43:21;;;;;;;0.70;0.70;;;;;;;;;;5036562;28;20213;-88
2023/01/06 00:45:48;;;;;;;1.25;1.02;;;;;;;;;;5019092;28;20213;-89
2023/01/06 00:48:16;;;;;;;3.40;0.95;;;;;;;;;;5033983;28;20284;-88
2023/01/06 00:50:45;;;;;;;0.70;0.70;;;;;;;;;;5024731;28;20229;-88
2023/01/06 00:53:12;;;;;;;0.85;0.80;;;;;;;;;;5043383;28;20221;-88
2023/01/06 00:55:40;;;;;;;1.02;0.98;;;;;;;;;;5036055;28;20604;-89
2023/01/06 00:58:07;;;;;;;0.93;0.93;;;;;;;;;;5030635;28;20238;-89
2023/01/06 01:00:35;;;;;;;1.10;0.95;;;;;;;;;;5028235;28;20647;-89
2023/01/06 01:03:03;;;;;;;1.17;1.10;;;;;;;;;;5036437;28;20265;-89
2023/01/06 01:05:30;;;;;;;1.33;1.20;;;;;;;;;;5029311;28;20249;-87
2023/01/06 01:07:59;;;;;;;1.00;0.80;;;;;;;;;;5015852;28;20242;-87
2023/01/06 01:10:26;;;;;;;1.15;1.05;;;;;;;;;;5015759;28;20238;-88
2023/01/06 01:12:54;;;;;;;1.88;1.02;;;;;;;;;;5023868;28;20264;-88
2023/01/06 01:15:22;;;;;;;0.70;0.70;;;;;;;;;;5030343;28;20230;-87
2023/01/06 01:17:49;;;;;;;1.35;1.00;;;;;;;;;;5015713;28;20247;-88
2023/01/06 01:20:17;;;;;;;1.15;1.05;;;;;;;;;;5033377;28;20277;-90
2023/01/06 01:22:44;;;;;;;1.00;0.90;;;;;;;;;;5036320;28;20754;-89
2023/01/06 01:25:13;;;;;;;0.95;0.95;;;;;;;;;;5032163;28;20286;-90
2023/01/06 01:27:41;;;;;;;0.95;0.95;;;;;;;;;;5016843;28;20794;-91
2023/01/06 01:30:09;;;;;;;0.93;0.90;;;;;;;;;;5016463;28;20207;-90
2023/01/06 01:32:37;;;;;;;1.00;1.00;;;;;;;;;;5027227;28;20216;-89
2023/01/06 01:35:05;;;;;;;0.75;0.75;;;;;;;;;;5036415;28;20202;-90
2023/01/06 01:37:32;;;;;;;1.10;1.00;;;;;;;;;;5035970;28;20194;-89
2023/01/06 01:40:00;;;;;;;0.80;0.80;;;;;;;;;;5036414;28;20210;-90
2023/01/06 01:42:29;;;;;;;1.10;1.10;;;;;;;;;;5034674;28;20237;-88
2023/01/06 01:45:03;;;;;;;1.13;1.00;;;;;;;;;;5016852;28;20203;-90
2023/01/06 01:47:41;;;;;;;1.23;1.13;;;;;;;;;;5034049;28;20260;-89
2023/01/06 01:50:19;;;;;;;1.10;1.00;;;;;;;;;;5042885;28;20289;-88
2023/01/06 01:52:51;;;;;;;1.30;1.25;;;;;;;;;;5035136;28;20272;-90
2023/01/06 01:55:20;;;;;;;1.25;1.10;;;;;;;;;;5034887;28;20273;-89
2023/01/06 01:57:52;;;;;;;1.27;1.17;;;;;;;;;;5033334;28;20198;-89
2023/01/06 02:00:20;;;;;;;1.77;1.00;;;;;;;;;;5034909;28;20289;-88
2023/01/06 02:02:48;;;;;;;1.30;1.20;;;;;;;;;;5030488;28;20763;-88
2023/01/06 02:05:18;;;;;;;2.55;2.08;;;;;;;;;;5035270;28;20205;-90
2023/01/06 02:07:46;;;;;;;1.27;1.17;;;;;;;;;;5036397;28;20226;-89
2023/01/06 02:10:17;;;;;;;0.98;0.98;;;;;;;;;;5035077;28;20298;-89
2023/01/06 02:12:54;;;;;;;1.10;1.00;;;;;;;;;;5035806;28;20309;-89
2023/01/06 02:15:25;;;;;;;1.70;1.60;;;;;;;;;;5016827;28;20183;-90
2023/01/06 02:18:36;;;;;;;2.05;1.30;;;;;;;;;;5056882;28;20292;-89
2023/01/06 02:21:20;;;;;;;1.25;1.15;;;;;;;;;;5024656;28;20201;-88
2023/01/06 02:25:01;;;;;;;2.28;1.60;;;;;;;;;;5035978;28;20236;-89
2023/01/06 02:28:10;;;;;;;1.70;1.60;;;;;;;;;;4955409;28;20652;-89
2023/01/06 02:31:34;;;;;;;1.30;1.20;;;;;;;;;;5022873;28;20281;-89
2023/01/06 02:34:09;;;;;;;1.60;1.50;;;;;;;;;;5027287;28;20286;-89
2023/01/06 02:36:43;;;;;;;1.08;1.05;;;;;;;;;;5031081;28;20193;-89
2023/01/06 02:39:24;;;;;;;1.70;1.30;;;;;;;;;;5037789;28;20485;-89
2023/01/06 02:41:58;;;;;;;2.25;1.30;;;;;;;;;;5038738;28;20286;-87
2023/01/06 02:44:31;;;;;;;1.35;1.17;;;;;;;;;;5038525;28;20649;-88
2023/01/06 02:47:10;;;;;;;0.93;0.93;;;;;;;;;;5037617;28;20295;-88
2023/01/06 02:49:45;;;;;;;0.93;0.93;;;;;;;;;;5037303;28;20206;-87
2023/01/06 02:52:22;;;;;;;1.20;1.10;;;;;;;;;;5038516;28;20724;-88
2023/01/06 02:54:55;;;;;;;1.20;1.10;;;;;;;;;;5027470;28;20283;-87
2023/01/06 02:57:27;;;;;;;1.40;1.30;;;;;;;;;;5018313;28;20222;-88
2023/01/06 03:00:04;;;;;;;1.50;1.40;;;;;;;;;;5018260;28;20294;-89
2023/01/06 03:02:35;;;;;;;1.30;1.20;;;;;;;;;;5036568;28;20320;-88
2023/01/06 03:05:04;;;;;;;1.38;1.10;;;;;;;;;;5037920;28;20302;-89
2023/01/06 03:07:33;;;;;;;1.70;1.42;;;;;;;;;;5037932;28;20218;-90
2023/01/06 03:10:02;;;;;;;1.58;1.30;;;;;;;;;;5038696;28;20230;-90
2023/01/06 03:12:35;;;;;;;1.20;1.20;;;;;;;;;;5030933;28;20280;-89
2023/01/06 03:15:03;;;;;;;1.38;1.27;;;;;;;;;;5019376;28;20215;-89
2023/01/06 03:17:32;;;;;;;1.10;1.00;;;;;;;;;;5029052;28;20667;-88
2023/01/06 03:19:59;;;;;;;1.48;1.30;;;;;;;;;;5038365;28;20277;-89
2023/01/06 03:22:27;;;;;;;2.28;1.88;;;;;;;;;;5044384;28;20664;-88
2023/01/06 03:24:55;;;;;;;1.70;1.60;;;;;;;;;;5039111;28;20249;-89
2023/01/06 03:27:26;;;;;;;2.00;1.70;;;;;;;;;;5038634;28;20236;-88
2023/01/06 03:29:54;;;;;;;2.88;2.05;;;;;;;;;;5047291;28;20198;-89
2023/01/06 03:32:26;;;;;;;1.65;1.55;;;;;;;;;;5033041;28;20289;-89
2023/01/06 03:35:10;;;;;;;1.50;1.40;;;;;;;;;;5038969;28;20273;-88
2023/01/06 03:37:44;;;;;;;1.58;1.48;;;;;;;;;;5030668;28;20278;-88
2023/01/06 03:40:20;;;;;;;1.52;1.42;;;;;;;;;;5038895;28;20647;-89
2023/01/06 03:45:50;;;;;;;1.50;1.40;;;;;;;;;;5038041;28;20867;-89
2023/01/06 03:48:28;;;;;;;1.48;1.38;;;;;;;;;;5037401;28;20191;-88
2023/01/06 03:51:02;;;;;;;1.40;1.30;;;;;;;;;;5036787;28;20198;-88
2023/01/06 03:53:35;;;;;;;2.05;1.50;;;;;;;;;;5030733;28;20305;-88
2023/01/06 03:56:13;;;;;;;1.42;1.33;;;;;;;;;;5020986;28;20269;-86
2023/01/06 03:58:42;;;;;;;1.67;1.58;;;;;;;;;;5037875;28;20279;-89
2023/01/06 04:01:09;;;;;;;1.30;1.25;;;;;;;;;;5030268;28;20285;-87
2023/01/06 04:03:37;;;;;;;1.50;1.48;;;;;;;;;;5024492;28;20302;-88
2023/01/06 04:06:07;;;;;;;1.48;1.38;;;;;;;;;;5020911;28;20269;-88
2023/01/06 04:08:34;;;;;;;1.10;1.10;;;;;;;;;;5045463;28;20193;-88
2023/01/06 04:11:02;;;;;;;1.27;1.17;;;;;;;;;;5046997;28;20667;-87
2023/01/06 04:13:28;;;;;;;1.00;1.00;;;;;;;;;;5034539;28;20256;-88
2023/01/06 04:15:56;;;;;;;1.10;1.10;;;;;;;;;;5037072;28;20285;-88
2023/01/06 04:18:23;;;;;;;1.50;1.40;;;;;;;;;;5036298;28;20309;-88
2023/01/06 04:20:51;;;;;;;1.15;1.10;;;;;;;;;;5036421;28;20226;-87
2023/01/06 04:23:19;;;;;;;1.05;1.05;;;;;;;;;;5041422;28;20222;-89
2023/01/06 04:25:47;;;;;;;1.60;1.50;;;;;;;;;;5036835;28;20229;-89
2023/01/06 04:28:14;;;;;;;1.50;1.40;;;;;;;;;;5035844;28;20217;-88
2023/01/06 04:30:42;;;;;;;1.30;1.20;;;;;;;;;;5037597;28;20225;-89
2023/01/06 04:33:09;;;;;;;1.00;1.00;;;;;;;;;;5018207;28;20631;-87
2023/01/06 04:35:37;;;;;;;1.35;1.25;;;;;;;;;;5015453;28;20262;-88
2023/01/06 04:38:04;;;;;;;1.10;1.10;;;;;;;;;;5032448;28;20290;-88
2023/01/06 04:40:33;;;;;;;0.68;0.68;;;;;;;;;;5037090;28;20204;-88
2023/01/06 04:43:06;;;;;;;0.95;0.93;;;;;;;;;;5028010;28;20710;-86
2023/01/06 04:45:35;;;;;;;0.63;0.63;;;;;;;;;;5037137;28;20206;-89
2023/01/06 04:48:02;;;;;;;0.73;0.73;;;;;;;;;;5036142;28;20285;-89
2023/01/06 04:50:30;;;;;;;0.93;0.93;;;;;;;;;;5021839;28;20656;-88
2023/01/06 04:52:57;;;;;;;0.75;0.75;;;;;;;;;;5039288;28;20273;-88
2023/01/06 04:55:25;;;;;;;1.08;1.08;;;;;;;;;;5017102;28;20214;-86
2023/01/06 04:57:54;;;;;;;1.85;1.75;;;;;;;;;;5016451;28;20290;-89
2023/01/06 05:00:22;;;;;;;1.02;1.02;;;;;;;;;;5016445;28;20234;-87
2023/01/06 05:02:49;;;;;;;0.70;0.70;;;;;;;;;;5035513;28;20630;-88
2023/01/06 05:05:17;;;;;;;0.70;0.70;;;;;;;;;;5016420;28;20258;-87
2023/01/06 05:07:45;;;;;;;0.60;0.60;;;;;;;;;;5016872;28;20199;-90
2023/01/06 05:10:12;;;;;;;0.70;0.70;;;;;;;;;;5028339;28;20241;-89
2023/01/06 05:12:40;;;;;;;1.05;0.93;;;;;;;;;;5036491;28;20765;-89
2023/01/06 05:15:10;;;;;;;0.80;0.80;;;;;;;;;;5036050;28;20226;-89
2023/01/06 05:17:38;;;;;;;0.70;0.70;;;;;;;;;;5036906;28;20221;-90
2023/01/06 05:20:07;;;;;;;0.90;0.90;;;;;;;;;;5035946;28;20210;-90
2023/01/06 05:22:35;;;;;;;1.08;1.00;;;;;;;;;;5035738;28;20202;-89
2023/01/06 05:25:02;;;;;;;0.68;0.68;;;;;;;;;;5016244;28;20290;-89
2023/01/06 05:27:30;;;;;;;0.70;0.68;;;;;;;;;;5015927;28;20734;-87
2023/01/06 05:29:58;;;;;;;0.77;0.77;;;;;;;;;;5025262;28;20202;-88
2023/01/06 05:32:26;;;;;;;0.70;0.70;;;;;;;;;;5036059;28;20733;-89
2023/01/06 05:34:54;;;;;;;0.65;0.65;;;;;;;;;;5035762;28;20722;-90
2023/01/06 05:37:21;;;;;;;0.47;0.47;;;;;;;;;;5041893;28;20241;-90
2023/01/06 05:39:49;;;;;;;1.88;0.98;;;;;;;;;;5049865;28;20286;-89
2023/01/06 05:42:17;;;;;;;0.80;0.80;;;;;;;;;;5032384;28;20289;-87
2023/01/06 05:44:44;;;;;;;0.75;0.75;;;;;;;;;;5032425;28;20281;-88
2023/01/06 05:47:12;;;;;;;1.00;1.00;;;;;;;;;;5033491;28;20214;-89
2023/01/06 05:49:41;;;;;;;0.70;0.70;;;;;;;;;;5016751;28;20402;-88
2023/01/06 05:52:08;;;;;;;0.60;0.60;;;;;;;;;;5016255;28;20286;-89
2023/01/06 05:54:36;;;;;;;0.73;0.73;;;;;;;;;;5028527;28;20293;-87
2023/01/06 05:57:03;;;;;;;0.85;0.85;;;;;;;;;;5015840;28;20205;-89
2023/01/06 05:59:31;;;;;;;1.40;1.30;;;;;;;;;;5015491;28;20301;-88
2023/01/06 06:01:58;;;;;;;1.02;1.00;;;;;;;;;;5035323;28;20226;-88
2023/01/06 06:04:26;;;;;;;1.30;1.20;;;;;;;;;;5043977;28;20646;-89
2023/01/06 06:06:54;;;;;;;3.63;1.10;;;;;;;;;;5034973;28;20310;-89
2023/01/06 06:09:22;;;;;;;0.82;0.82;;;;;;;;;;5034711;28;20648;-89
2023/01/06 06:11:50;;;;;;;1.10;1.10;;;;;;;;;;5035335;28;20241;-88
2023/01/06 06:14:25;;;;;;;0.90;0.90;;;;;;;;;;5029380;28;20227;-89
2023/01/06 06:16:54;;;;;;;2.97;1.38;;;;;;;;;;5034448;28;20194;-89
2023/01/06 06:19:21;;;;;;;1.00;1.00;;;;;;;;;;5034850;28;20293;-88
2023/01/06 06:21:49;;;;;;;1.10;1.10;;;;;;;;;;5035170;28;20633;-89
2023/01/06 06:24:18;;;;;;;1.02;1.00;;;;;;;;;;5035666;28;20309;-89
2023/01/06 06:26:45;;;;;;;0.75;0.70;;;;;;;;;;5035667;28;20261;-88
2023/01/06 06:29:13;;;;;;;0.82;0.70;;;;;;;;;;5034243;28;20234;-87
2023/01/06 06:31:40;;;;;;;0.75;0.75;;;;;;;;;;5026040;28;20230;-88
2023/01/06 06:34:10;;;;;;;0.73;0.73;;;;;;;;;;5035065;28;20343;-88
2023/01/06 06:36:37;;;;;;;1.63;1.00;;;;;;;;;;5035335;28;20288;-88
2023/01/06 06:39:05;;;;;;;0.80;0.80;;;;;;;;;;5035152;28;20941;-88
2023/01/06 06:41:34;;;;;;;0.60;0.60;;;;;;;;;;5035281;28;20398;-89
2023/01/06 06:44:02;;;;;;;0.80;0.80;;;;;;;;;;5034751;28;20238;-89
2023/01/06 06:46:30;;;;;;;0.90;0.90;;;;;;;;;;5026731;28;20590;-88
2023/01/06 06:48:58;;;;;;;0.98;0.98;;;;;;;;;;5032227;28;20207;-88
2023/01/06 06:51:25;;;;;;;1.23;1.13;;;;;;;;;;5028214;28;20206;-88
2023/01/06 06:53:53;;;;;;;0.90;0.90;;;;;;;;;;5026184;28;20223;-88
2023/01/06 06:56:21;;;;;;;0.70;0.70;;;;;;;;;;5049251;28;20197;-89
2023/01/06 06:58:50;;;;;;;1.15;1.02;;;;;;;;;;5054510;28;20202;-88
2023/01/06 07:01:20;;;;;;;1.05;1.00;;;;;;;;;;5042961;28;20614;-87
2023/01/06 07:03:48;;;;;;;0.80;0.80;;;;;;;;;;5034712;28;20305;-88
2023/01/06 07:06:19;;;;;;;0.95;0.93;;;;;;;;;;5034646;28;20232;-88
2023/01/06 07:08:48;;;;;;;1.20;1.20;;;;;;;;;;5015214;28;20207;-88
2023/01/06 07:11:16;;;;;;;1.08;1.08;;;;;;;;;;5014965;28;20743;-87
2023/01/06 07:13:44;;;;;;;1.58;1.48;;;;;;;;;;5033763;28;20232;-89
2023/01/06 07:16:13;;;;;;;1.40;1.30;;;;;;;;;;5034491;28;20202;-87
2023/01/06 07:18:41;;;;;;;1.35;1.25;;;;;;;;;;5033342;28;20297;-88
2023/01/06 07:21:09;;;;;;;1.13;1.13;;;;;;;;;;5034721;28;20226;-88
2023/01/06 07:23:36;;;;;;;1.05;1.05;;;;;;;;;;5034112;28;20293;-87
2023/01/06 07:26:04;;;;;;;0.95;0.95;;;;;;;;;;5034090;28;20320;-88
2023/01/06 07:28:33;;;;;;;1.05;1.05;;;;;;;;;;5034136;28;20573;-88
2023/01/06 07:31:00;;;;;;;0.95;0.95;;;;;;;;;;5034486;28;20208;-89
2023/01/06 07:33:29;;;;;;;0.75;0.75;;;;;;;;;;5034142;28;20225;-88
2023/01/06 07:35:58;;;;;;;1.05;1.05;;;;;;;;;;5034677;28;20289;-87
2023/01/06 07:38:25;;;;;;;0.65;0.65;;;;;;;;;;5041811;28;20206;-88
2023/01/06 07:40:58;;;;;;;0.85;0.85;;;;;;;;;;5023606;28;20306;-88
2023/01/06 07:43:25;;;;;;;0.98;0.70;;;;;;;;;;5031549;28;20234;-89
2023/01/06 07:45:53;;;;;;;1.27;1.05;;;;;;;;;;5033927;28;20220;-88
2023/01/06 07:48:20;;;;;;;0.50;0.50;;;;;;;;;;5030583;28;20310;-88
2023/01/06 07:50:49;;;;;;;1.60;0.90;;;;;;;;;;5016887;28;20285;-87
2023/01/06 07:53:17;;;;;;;1.27;1.20;;;;;;;;;;5033528;28;20322;-88
2023/01/06 07:55:52;;;;;;;1.00;1.00;;;;;;;;;;5051349;28;20237;-88
2023/01/06 07:58:19;;;;;;;0.80;0.80;;;;;;;;;;5053048;28;20188;-88
2023/01/06 08:00:47;;;;;;;1.10;1.10;;;;;;;;;;5051492;28;20259;-87
2023/01/06 08:03:14;;;;;;;0.90;0.90;;;;;;;;;;5033279;28;20232;-88
2023/01/06 08:05:43;;;;;;;3.33;1.17;;;;;;;;;;5025029;28;20230;-86
2023/01/06 08:08:12;;;;;;;0.95;0.95;;;;;;;;;;5015373;28;20290;-88
2023/01/06 08:10:41;;;;;;;1.00;0.90;;;;;;;;;;5015233;28;20751;-87
2023/01/06 08:13:08;;;;;;;1.10;0.88;;;;;;;;;;5018935;28;20304;-87
2023/01/06 08:15:36;;;;;;;1.15;1.05;;;;;;;;;;5034744;28;20239;-86
2023/01/06 08:18:04;;;;;;;1.05;1.05;;;;;;;;;;5034818;28;20221;-86
2023/01/06 08:20:32;;;;;;;1.23;1.13;;;;;;;;;;5035072;28;20186;-86
2023/01/06 08:23:00;;;;;;;1.30;1.30;;;;;;;;;;5033616;28;20679;-86
2023/01/06 08:25:29;;;;;;;1.08;1.02;;;;;;;;;;5041642;28;20225;-87
2023/01/06 08:27:59;;;;;;;1.50;1.10;;;;;;;;;;5051688;28;20656;-87
2023/01/06 08:30:26;;;;;;;1.13;1.08;;;;;;;;;;5034899;28;20627;-85
2023/01/06 08:32:57;;;;;;;1.20;1.10;;;;;;;;;;5032487;28;20305;-88
2023/01/06 08:35:24;;;;;;;0.90;0.90;;;;;;;;;;5027987;28;20331;-87
2023/01/06 08:37:52;;;;;;;1.85;1.10;;;;;;;;;;5041424;28;20238;-86
2023/01/06 08:40:19;;;;;;;0.80;0.80;;;;;;;;;;5038335;23;20310;-88
2023/01/06 08:42:48;;;;;;;0.98;0.98;;;;;;;;;;5018393;28;20615;-87
2023/01/06 08:45:16;;;;;;;1.38;1.02;;;;;;;;;;5017375;28;20206;-88
2023/01/06 08:47:43;;;;;;;1.38;0.85;;;;;;;;;;5017828;28;20222;-87
2023/01/06 08:50:11;;;;;;;0.65;0.65;;;;;;;;;;5017877;28;20309;-88
2023/01/06 08:52:38;;;;;;;0.47;0.47;;;;;;;;;;5018047;28;20768;-88
2023/01/06 08:55:06;;;;;;;0.68;0.68;;;;;;;;;;5017544;28;20203;-87
2023/01/06 08:57:34;;;;;;;0.63;0.63;;;;;;;;;;5017487;28;20285;-88
2023/01/06 09:00:04;;;;;;;0.70;0.70;;;;;;;;;;5017449;28;20306;-87
2023/01/06 09:02:31;;;;;;;0.70;0.70;;;;;;;;;;5018469;28;20206;-87
2023/01/06 09:04:59;;;;;;;0.65;0.65;;;;;;;;;;5017959;28;20301;-87
2023/01/06 09:07:26;;;;;;;1.38;0.63;;;;;;;;;;5017038;28;20277;-87
2023/01/06 09:09:54;;;;;;;0.60;0.60;;;;;;;;;;5016973;28;20265;-88
2023/01/06 09:12:22;;;;;;;1.20;0.85;;;;;;;;;;5016798;28;20202;-87
2023/01/06 09:14:49;;;;;;;0.80;0.80;;;;;;;;;;5032009;28;20289;-88
2023/01/06 09:17:18;;;;;;;0.77;0.77;;;;;;;;;;5037874;28;20233;-87
2023/01/06 09:19:45;;;;;;;0.60;0.60;;;;;;;;;;5022615;28;20290;-87
2023/01/06 09:22:13;;;;;;;0.57;0.57;;;;;;;;;;5016892;28;20270;-86
2023/01/06 09:24:42;;;;;;;0.57;0.57;;;;;;;;;;5017503;28;20194;-87
2023/01/06 09:27:10;;;;;;;0.60;0.60;;;;;;;;;;5020186;28;20229;-86
2023/01/06 09:29:37;;;;;;;0.50;0.50;;;;;;;;;;5019780;28;20206;-87
2023/01/06 09:32:05;;;;;;;0.40;0.40;;;;;;;;;;5020916;28;20241;-87
2023/01/06 09:34:34;;;;;;;0.63;0.63;;;;;;;;;;5020209;28;20258;-87
2023/01/06 09:37:02;;;;;;;0.60;0.60;;;;;;;;;;5021068;28;20824;-87
2023/01/06 09:39:29;;;;;;;0.63;0.63;;;;;;;;;;5020036;28;20290;-87
2023/01/06 09:42:27;;;;;;;0.55;0.55;;;;;;;;;;5036194;28;20320;-88
2023/01/06 09:44:57;;;;;;;0.60;0.60;;;;;;;;;;5040101;28;20197;-88
2023/01/06 09:47:29;;;;;;;0.70;0.70;;;;;;;;;;5039108;28;20214;-88
2023/01/06 09:50:09;;;;;;;0.70;0.70;;;;;;;;;;5039563;28;20222;-87
2023/01/06 09:52:41;;;;;;;0.68;0.68;;;;;;;;;;5039686;28;20281;-87
2023/01/06 09:55:15;;;;;;;0.47;0.47;;;;;;;;;;5040233;28;20178;-86
2023/01/06 09:57:47;;;;;;;1.75;0.63;;;;;;;;;;5039905;28;20193;-87
2023/01/06 10:00:27;;;;;;;0.60;0.60;;;;;;;;;;5039335;28;20226;-88
2023/01/06 10:02:55;;;;;;;0.75;0.65;;;;;;;;;;5035690;28;20271;-87
2023/01/06 10:05:31;;;;;;;1.55;0.65;;;;;;;;;;5019078;28;20211;-86
2023/01/06 10:08:03;;;;;;;2.50;0.65;;;;;;;;;;5018209;28;20302;-87
2023/01/06 10:10:38;;;;;;;0.82;0.77;;;;;;;;;;5016743;28;20314;-86
2023/01/06 10:13:25;;;;;;;0.52;0.52;;;;;;;;;;4997397;28;20187;-88
2023/01/06 10:15:59;;;;;;;0.40;0.40;;;;;;;;;;4996750;28;20203;-87
2023/01/06 10:18:33;;;;;;;2.95;0.63;;;;;;;;;;5014419;28;20186;-87
2023/01/06 10:21:13;;;;;;;0.60;0.60;;;;;;;;;;5025280;28;20219;-88
2023/01/06 10:24:02;;;;;;;0.43;0.43;;;;;;;;;;5005788;28;20281;-87
2023/01/06 10:26:31;;;;;;;0.73;0.73;;;;;;;;;;5017157;28;20286;-86
2023/01/06 10:29:04;;;;;;;1.35;0.70;;;;;;;;;;5010996;28;20227;-88
2023/01/06 10:31:34;;;;;;;0.30;0.30;;;;;;;;;;5015015;28;20231;-87
2023/01/06 10:34:03;;;;;;;0.60;0.60;;;;;;;;;;5015844;28;20207;-86
2023/01/06 10:36:36;;;;;;;0.52;0.52;;;;;;;;;;5014452;28;20222;-87
2023/01/06 10:39:05;;;;;;;0.57;0.57;;;;;;;;;;5015357;28;20278;-88
2023/01/06 10:41:43;;;;;;;1.02;1.00;;;;;;;;;;5015638;28;20250;-86
2023/01/06 10:44:11;;;;;;;0.70;0.70;;;;;;;;;;5014042;28;20349;-88
2023/01/06 10:46:40;;;;;;;0.40;0.40;;;;;;;;;;5016150;28;20283;-87
2023/01/06 10:49:15;;;;;;;0.70;0.70;;;;;;;;;;5017854;28;20317;-88
2023/01/06 10:51:51;;;;;;;1.42;1.02;;;;;;;;;;5007187;28;20234;-88
2023/01/06 10:54:22;;;;;;;0.52;0.52;;;;;;;;;;4998614;28;20195;-87
2023/01/06 10:56:55;;;;;;;0.70;0.70;;;;;;;;;;4998435;28;20227;-87
2023/01/06 10:59:23;;;;;;;0.50;0.50;;;;;;;;;;4998390;28;20259;-87
2023/01/06 11:01:53;;;;;;;0.57;0.43;;;;;;;;;;4997154;28;20258;-88
2023/01/06 11:04:21;;;;;;;0.50;0.50;;;;;;;;;;4998661;28;20223;-87
2023/01/06 11:06:54;;;;;;;2.13;0.50;;;;;;;;;;4998490;28;20720;-88
2023/01/06 11:09:37;;;;;;;0.45;0.45;;;;;;;;;;4998152;28;20578;-88
2023/01/06 11:12:13;;;;;;;0.40;0.40;;;;;;;;;;4997910;28;20188;-88
2023/01/06 11:14:41;;;;;;;0.50;0.50;;;;;;;;;;4997233;28;20200;-87
2023/01/06 11:17:15;;;;;;;0.30;0.30;;;;;;;;;;4997232;28;20628;-87
2023/01/06 11:19:45;;;;;;;0.30;0.30;;;;;;;;;;5003699;28;20210;-88
2023/01/06 11:22:34;;;;;;;0.50;0.50;;;;;;;;;;5036000;28;20230;-87
2023/01/06 11:25:03;;;;;;;0.50;0.50;;;;;;;;;;5037744;28;20230;-88
2023/01/06 11:27:30;;;;;;;0.63;0.63;;;;;;;;;;5035559;28;20253;-87
2023/01/06 11:29:58;;;;;;;0.50;0.50;;;;;;;;;;5036072;28;20222;-88
2023/01/06 11:32:28;;;;;;;0.50;0.50;;;;;;;;;;5035888;28;20228;-88
2023/01/06 11:34:57;;;;;;;0.60;0.60;;;;;;;;;;5036185;28;20197;-87
2023/01/06 11:37:34;;;;;;;0.40;0.40;;;;;;;;;;5036244;28;20209;-88
2023/01/06 11:40:03;;;;;;;0.50;0.50;;;;;;;;;;5035701;28;20300;-87
2023/01/06 11:42:31;;;;;;;0.60;0.60;;;;;;;;;;5035839;28;20218;-88
2023/01/06 11:44:58;;;;;;;0.60;0.60;;;;;;;;;;5035805;28;20238;-88
2023/01/06 11:47:27;;;;;;;0.47;0.47;;;;;;;;;;5035248;28;20289;-88
2023/01/06 11:49:57;;;;;;;0.50;0.50;;;;;;;;;;5026515;28;20908;-88
2023/01/06 11:52:38;;;;;;;0.30;0.30;;;;;;;;;;5016159;28;20290;-88
2023/01/06 11:55:24;;;;;;;0.50;0.50;;;;;;;;;;5016538;28;20551;-89
2023/01/06 11:57:57;;;;;;;0.85;0.70;;;;;;;;;;5015964;28;20187;-88
2023/01/06 12:00:42;;;;;;;0.52;0.52;;;;;;;;;;5015880;28;20219;-88
2023/01/06 12:03:17;;;;;;;0.40;0.40;;;;;;;;;;5021675;28;20193;-88
2023/01/06 12:05:51;;;;;;;0.65;0.52;;;;;;;;;;5036400;28;20217;-88
2023/01/06 12:08:23;;;;;;;0.85;0.85;;;;;;;;;;5026753;28;20226;-88
2023/01/06 12:10:56;;;;;;;0.50;0.50;;;;;;;;;;5016379;28;20762;-88
2023/01/06 12:13:24;;;;;;;0.57;0.57;;;;;;;;;;5017121;28;20262;-90
2023/01/06 12:16:01;;;;;;;0.43;0.43;;;;;;;;;;5016925;28;20202;-87
2023/01/06 12:18:31;;;;;;;0.50;0.50;;;;;;;;;;5017950;28;20214;-87
2023/01/06 12:21:00;;;;;;;1.02;0.52;;;;;;;;;;5017462;28;20286;-88
2023/01/06 12:23:31;;;;;;;0.43;0.43;;;;;;;;;;5017212;28;20622;-87
2023/01/06 12:26:01;;;;;;;0.50;0.50;;;;;;;;;;5017516;28;20270;-87
2023/01/06 12:28:33;;;;;;;0.50;0.50;;;;;;;;;;5017494;28;20192;-87
2023/01/06 12:31:06;;;;;;;1.38;0.30;;;;;;;;;;5016804;28;20223;-87
2023/01/06 12:33:38;;;;;;;0.35;0.35;;;;;;;;;;5016576;28;20602;-88
2023/01/06 12:36:13;;;;;;;1.05;0.60;;;;;;;;;;5016048;28;20211;-87
2023/01/06 12:38:50;;;;;;;1.73;0.55;;;;;;;;;;5015490;28;20186;-88
2023/01/06 12:41:24;;;;;;;0.43;0.43;;;;;;;;;;5015953;28;20316;-88
2023/01/06 12:43:57;;;;;;;0.65;0.50;;;;;;;;;;5015178;28;20192;-88
2023/01/06 12:46:29;;;;;;;0.50;0.50;;;;;;;;;;5015732;28;20251;-89
2023/01/06 12:48:59;;;;;;;0.40;0.40;;;;;;;;;;5015102;28;20187;-87
2023/01/06 12:51:38;;;;;;;0.40;0.40;;;;;;;;;;5015151;28;20230;-87
2023/01/06 12:54:13;;;;;;;0.65;0.38;;;;;;;;;;5016409;28;20186;-86
2023/01/06 12:57:00;;;;;;;0.40;0.40;;;;;;;;;;5015910;28;20949;-86
2023/01/06 12:59:39;;;;;;;0.43;0.43;;;;;;;;;;5015807;28;20215;-86
2023/01/06 13:02:21;;;;;;;0.43;0.43;;;;;;;;;;5016321;28;20274;-89
2023/01/06 13:05:15;;;;;;;0.80;0.80;;;;;;;;;;5015675;28;20195;-88
2023/01/06 13:07:50;;;;;;;0.32;0.32;;;;;;;;;;5015606;28;20187;-88
2023/01/06 13:10:34;;;;;;;0.30;0.30;;;;;;;;;;5015596;28;20229;-88
2023/01/06 13:13:31;;;;;;;0.38;0.38;;;;;;;;;;5015228;28;20183;-88
2023/01/06 13:16:20;;;;;;;0.47;0.47;;;;;;;;;;5015680;28;20209;-88
2023/01/06 13:19:01;;;;;;;0.40;0.40;;;;;;;;;;5016427;28;20261;-85
2023/01/06 13:21:29;;;;;;;0.32;0.30;;;;;;;;;;5016086;28;20310;-87
2023/01/06 13:24:11;;;;;;;0.45;0.45;;;;;;;;;;5016994;28;20249;-86
2023/01/06 13:27:09;;;;;;;1.63;1.52;;;;;;;;;;5016467;28;20632;-85
2023/01/06 13:29:53;;;;;;;5.05;4.57;;;;;;;;;;5007465;28;20694;-87
2023/01/06 13:32:42;;;;;;;1.50;1.40;;;;;;;;;;5017631;28;20214;-87
2023/01/06 13:35:39;;;;;;;1.00;1.00;;;;;;;;;;5017011;28;20191;-86
2023/01/06 13:38:49;;;;;;;0.93;0.93;;;;;;;;;;5017353;28;20198;-87
2023/01/06 13:41:19;;;;;;;0.60;0.60;;;;;;;;;;5012101;28;20232;-85
2023/01/06 13:43:50;;;;;;;0.35;0.35;;;;;;;;;;5017745;28;20194;-87
2023/01/06 13:46:19;;;;;;;0.70;0.70;;;;;;;;;;5017935;28;20241;-85
2023/01/06 13:48:52;;;;;;;0.40;0.40;;;;;;;;;;5017051;28;20207;-84
2023/01/06 13:51:24;;;;;;;0.60;0.60;;;;;;;;;;5017061;28;20237;-84
2023/01/06 13:53:53;;;;;;;0.40;0.40;;;;;;;;;;5017963;28;20274;-87
2023/01/06 13:56:31;;;;;;;0.60;0.60;;;;;;;;;;5018342;28;20203;-86
2023/01/06 13:59:21;;;;;;;0.35;0.35;;;;;;;;;;5017509;28;20363;-85
2023/01/06 14:01:48;;;;;;;0.40;0.40;;;;;;;;;;5018151;28;20290;-84
2023/01/06 14:04:46;;;;;;;0.40;0.40;;;;;;;;;;5017849;28;20229;-86
2023/01/06 14:07:15;;;;;;;0.65;0.65;;;;;;;;;;5016832;28;20295;-86
2023/01/06 14:09:51;;;;;;;0.43;0.43;;;;;;;;;;5018255;28;20266;-85
2023/01/06 14:12:22;;;;;;;0.40;0.40;;;;;;;;;;5020047;28;20234;-84
2023/01/06 14:15:00;;;;;;;0.40;0.40;;;;;;;;;;5021416;28;20542;-85
2023/01/06 14:17:32;;;;;;;0.40;0.40;;;;;;;;;;5021079;28;20193;-86
2023/01/06 14:19:59;;;;;;;0.30;0.30;;;;;;;;;;5020828;28;20703;-84
2023/01/06 14:22:28;;;;;;;0.50;0.50;;;;;;;;;;5020864;28;20242;-84
2023/01/06 14:24:58;;;;;;;1.52;0.47;;;;;;;;;;5021467;28;20219;-86
2023/01/06 14:28:07;;;;;;;0.60;0.60;;;;;;;;;;5020426;28;20206;-86
2023/01/06 14:30:38;;;;;;;0.50;0.50;;;;;;;;;;5020808;28;20265;-85
2023/01/06 14:33:30;;;;;;;0.60;0.60;;;;;;;;;;5020216;28;20207;-86
2023/01/06 14:36:05;;;;;;;0.50;0.50;;;;;;;;;;5020665;28;20633;-84
2023/01/06 14:38:37;;;;;;;0.68;0.52;;;;;;;;;;5020738;28;20555;-85
2023/01/06 14:41:07;;;;;;;0.50;0.50;;;;;;;;;;5020549;28;20262;-86
2023/01/06 14:43:45;;;;;;;0.50;0.50;;;;;;;;;;5019961;28;20698;-84
2023/01/06 14:46:19;;;;;;;0.50;0.50;;;;;;;;;;5020654;28;20274;-86
2023/01/06 14:48:54;;;;;;;0.60;0.60;;;;;;;;;;5020520;28;20528;-86
2023/01/06 14:51:23;;;;;;;0.50;0.50;;;;;;;;;;5020582;28;20309;-87
2023/01/06 14:53:58;;;;;;;0.98;0.90;;;;;;;;;;5019610;28;20590;-86
2023/01/06 14:56:27;;;;;;;0.80;0.80;;;;;;;;;;5021166;28;20186;-86
2023/01/06 14:59:07;;;;;;;0.60;0.60;;;;;;;;;;5021119;28;20254;-85
2023/01/06 15:01:39;;;;;;;0.77;0.77;;;;;;;;;;5020832;28;20313;-87
2023/01/06 15:04:18;;;;;;;1.10;1.10;;;;;;;;;;5021259;28;20187;-86
2023/01/06 15:07:00;;;;;;;1.30;1.20;;;;;;;;;;5020612;28;20215;-84
2023/01/06 15:09:29;;;;;;;0.80;0.80;;;;;;;;;;5020987;28;20688;-84
2023/01/06 15:11:56;;;;;;;0.90;0.90;;;;;;;;;;5021261;28;20334;-85
2023/01/06 15:14:32;;;;;;;0.52;0.52;;;;;;;;;;5023855;28;20242;-86